Time;durP1;ratioP1;P1;durP2;ratioP2;P2;SDS_P1;SDS_P2;PMS_P1;PMS_P2;Temp;Humidity;BMP_temperature;BMP_pressure;BME280_temperature;BME280_humidity;BME280_pressure;Samples;Min_cycle;Max_cycle;Signal;HPM_P1;HPM_P2
2022/07/02 00:00:53;;;;;;;1.70;1.20;;;15.10;99.90;;;;;;5071684;28;20073;-71
2022/07/02 00:03:52;;;;;;;7.60;1.80;;;16.30;99.90;;;;;;5072162;28;20033;-72
2022/07/02 00:06:20;;;;;;;3.53;1.67;;;14.90;99.90;;;;;;5034208;28;20049;-70
2022/07/02 00:08:46;;;;;;;4.60;1.65;;;14.80;99.90;;;;;;5088733;28;20507;-70
2022/07/02 00:11:16;;;;;;;5.75;1.58;;;14.90;99.90;;;;;;5094630;22;20049;-71
2022/07/02 00:13:42;;;;;;;2.67;1.27;;;14.80;99.90;;;;;;5038849;28;20040;-72
2022/07/02 00:16:12;;;;;;;3.85;1.65;;;14.80;99.90;;;;;;5055545;28;20162;-72
2022/07/02 00:18:38;;;;;;;3.70;1.88;;;14.90;99.90;;;;;;5055165;28;20097;-71
2022/07/02 00:21:04;;;;;;;4.70;1.70;;;15.00;99.90;;;;;;5054375;28;20120;-72
2022/07/02 00:23:29;;;;;;;5.00;2.00;;;14.80;99.90;;;;;;5055041;28;20037;-71
2022/07/02 00:26:07;;;;;;;4.00;1.98;;;14.70;99.90;;;;;;5054446;28;20059;-71
2022/07/02 00:28:35;;;;;;;4.88;1.50;;;15.90;99.90;;;;;;5072993;28;20055;-73
2022/07/02 00:31:01;;;;;;;4.65;2.22;;;14.70;99.90;;;;;;5054191;28;20040;-71
2022/07/02 00:33:32;;;;;;;5.13;1.80;;;14.70;99.90;;;;;;5055171;28;20266;-71
2022/07/02 00:35:59;;;;;;;4.78;1.83;;;14.80;99.90;;;;;;5073194;28;20166;-71
2022/07/02 00:38:24;;;;;;;5.13;1.90;;;14.90;99.90;;;;;;5054891;28;20051;-72
2022/07/02 00:40:51;;;;;;;5.85;2.08;;;14.60;99.90;;;;;;5054150;28;20115;-71
2022/07/02 00:43:18;;;;;;;4.55;1.92;;;15.10;99.90;;;;;;5054924;28;20086;-71
2022/07/02 00:45:43;;;;;;;4.45;1.75;;;14.50;99.90;;;;;;5072861;28;20044;-71
2022/07/02 00:48:09;;;;;;;3.90;1.65;;;15.30;99.90;;;;;;5055078;28;20075;-71
2022/07/02 00:50:35;;;;;;;11.10;2.42;;;14.50;99.90;;;;;;5053914;28;20048;-71
2022/07/02 00:53:02;;;;;;;5.20;2.10;;;14.50;99.90;;;;;;5054991;28;20063;-72
2022/07/02 00:55:27;;;;;;;5.30;2.00;;;15.20;99.90;;;;;;5072315;28;20052;-72
2022/07/02 00:57:54;;;;;;;3.83;1.77;;;14.20;99.90;;;;;;5054514;28;20040;-71
2022/07/02 01:00:20;;;;;;;5.03;1.75;;;14.30;99.90;;;;;;5052779;28;20093;-71
2022/07/02 01:02:46;;;;;;;2.42;1.77;;;15.00;99.90;;;;;;5054403;28;20041;-71
2022/07/02 01:05:17;;;;;;;9.50;2.03;;;14.40;99.90;;;;;;5072549;28;20111;-71
2022/07/02 01:07:46;;;;;;;5.88;2.47;;;14.90;99.90;;;;;;5038064;28;20036;-71
2022/07/02 01:10:17;;;;;;;3.58;1.92;;;14.70;99.90;;;;;;5053280;28;20045;-71
2022/07/02 01:12:45;;;;;;;8.30;2.35;;;14.60;99.90;;;;;;5054246;28;20060;-71
2022/07/02 01:15:11;;;;;;;7.45;2.58;;;14.50;99.90;;;;;;5054187;28;20044;-71
2022/07/02 01:17:37;;;;;;;4.18;2.15;;;14.30;99.90;;;;;;5054150;28;20132;-71
2022/07/02 01:20:03;;;;;;;5.05;2.17;;;14.80;99.90;;;;;;5036694;28;20473;-71
2022/07/02 01:22:36;;;;;;;6.93;1.90;;;14.50;99.90;;;;;;5054112;28;20047;-71
2022/07/02 01:25:03;;;;;;;5.50;1.83;;;15.20;99.90;;;;;;5071979;28;20044;-72
2022/07/02 01:27:29;;;;;;;7.70;2.70;;;14.30;99.90;;;;;;5054009;28;20115;-71
2022/07/02 01:29:55;;;;;;;5.10;1.98;;;14.60;99.90;;;;;;5071488;28;20111;-71
2022/07/02 01:32:21;;;;;;;7.88;2.20;;;14.30;99.90;;;;;;5037889;28;20529;-71
2022/07/02 01:34:49;;;;;;;6.50;2.75;;;14.50;99.90;;;;;;5072158;28;20049;-72
2022/07/02 01:37:16;;;;;;;5.30;2.53;;;14.40;99.90;;;;;;5072608;28;20432;-71
2022/07/02 01:39:44;;;;;;;4.97;2.63;;;14.50;99.90;;;;;;5053165;28;20165;-71
2022/07/02 01:42:10;;;;;;;3.92;2.63;;;14.30;99.90;;;;;;5054124;28;20437;-71
2022/07/02 01:44:37;;;;;;;6.10;2.17;;;14.40;99.90;;;;;;5072074;28;20071;-71
2022/07/02 01:47:05;;;;;;;4.45;2.90;;;14.20;99.90;;;;;;5071978;28;20037;-71
2022/07/02 01:49:31;;;;;;;5.95;2.80;;;14.20;99.90;;;;;;5036401;28;20471;-71
2022/07/02 01:51:56;;;;;;;6.68;3.28;;;14.30;99.90;;;;;;5071428;28;20119;-71
2022/07/02 01:54:22;;;;;;;9.70;2.47;;;14.20;99.90;;;;;;5053846;28;20123;-71
2022/07/02 01:56:48;;;;;;;5.20;2.58;;;14.30;99.90;;;;;;5053982;28;20032;-72
2022/07/02 01:59:13;;;;;;;7.03;2.85;;;14.20;99.90;;;;;;5052879;28;20494;-72
2022/07/02 02:01:43;;;;;;;5.47;3.05;;;14.30;99.90;;;;;;5070562;28;20074;-71
2022/07/02 02:04:09;;;;;;;10.80;2.95;;;14.10;99.90;;;;;;5037423;28;20086;-71
2022/07/02 02:06:35;;;;;;;7.20;2.80;;;14.20;99.90;;;;;;5053799;28;20032;-71
2022/07/02 02:09:01;;;;;;;10.02;3.08;;;;;;;;;;5053069;28;20361;-71
2022/07/02 02:11:27;;;;;;;8.60;3.13;;;;;;;;;;5071134;28;20528;-71
2022/07/02 02:13:53;;;;;;;4.88;2.70;;;;;;;;;;5037207;28;20182;-71
2022/07/02 02:16:19;;;;;;;5.88;2.78;;;;;;;;;;5053414;28;20049;-71
2022/07/02 02:18:45;;;;;;;4.95;2.65;;;;;;;;;;5053361;28;20047;-71
2022/07/02 02:21:11;;;;;;;8.38;3.20;;;;;;;;;;5052640;28;20426;-71
2022/07/02 02:23:37;;;;;;;6.13;3.05;;;;;;;;;;5071534;28;20041;-71
2022/07/02 02:26:03;;;;;;;6.18;2.97;;;;;;;;;;5036747;28;20405;-71
2022/07/02 02:28:29;;;;;;;7.40;3.08;;;;;;;;;;5036999;28;20044;-71
2022/07/02 02:30:55;;;;;;;6.25;2.75;;;;;;;;;;5070536;28;20072;-71
2022/07/02 02:33:21;;;;;;;8.48;3.38;;;;;;;;;;5071586;28;20040;-71
2022/07/02 02:35:47;;;;;;;10.85;3.95;;;;;;;;;;5053348;28;20040;-71
2022/07/02 02:38:13;;;;;;;10.25;4.30;;;;;;;;;;5053270;28;20409;-71
2022/07/02 02:40:39;;;;;;;12.13;4.72;;;;;;;;;;5053110;28;20033;-71
2022/07/02 02:43:05;;;;;;;7.63;3.42;;;;;;;;;;5071116;28;20139;-71
2022/07/02 02:45:31;;;;;;;7.60;3.70;;;;;;;;;;5053191;28;20040;-71
2022/07/02 02:47:57;;;;;;;10.52;3.50;;;;;;;;;;5054572;28;20410;-71
2022/07/02 02:50:23;;;;;;;8.48;4.25;;;;;;;;;;5056029;28;20123;-71
2022/07/02 02:52:49;;;;;;;8.02;4.18;;;;;;;;;;5056928;28;20494;-71
2022/07/02 02:55:15;;;;;;;5.85;4.13;;;13.60;99.90;;;;;;5057236;28;20131;-71
2022/07/02 02:57:40;;;;;;;9.43;4.82;;;13.70;99.90;;;;;;5074868;28;20490;-71
2022/07/02 03:00:06;;;;;;;7.07;4.30;;;13.70;99.90;;;;;;5055798;28;20044;-71
2022/07/02 03:02:32;;;;;;;10.02;5.15;;;13.70;99.90;;;;;;5073575;28;20033;-71
2022/07/02 03:04:57;;;;;;;10.57;5.53;;;13.50;99.90;;;;;;5040142;28;20040;-72
2022/07/02 03:07:23;;;;;;;9.07;4.95;;;15.20;99.90;;;;;;5056604;28;20107;-71
2022/07/02 03:09:48;;;;;;;9.88;5.90;;;13.70;99.90;;;;;;5055835;28;20046;-71
2022/07/02 03:12:14;;;;;;;8.82;5.78;;;13.50;99.90;;;;;;5056583;28;20090;-71
2022/07/02 03:14:39;;;;;;;9.13;4.55;;;13.60;99.90;;;;;;5057016;28;20044;-72
2022/07/02 03:17:06;;;;;;;9.52;5.28;;;;;;;;;;5056496;28;20037;-71
2022/07/02 03:19:31;;;;;;;11.68;4.95;;;13.60;99.90;;;;;;5073635;28;20129;-71
2022/07/02 03:21:57;;;;;;;10.60;4.78;;;13.70;99.90;;;;;;5039891;28;20129;-71
2022/07/02 03:24:23;;;;;;;10.23;5.78;;;13.60;99.90;;;;;;5056610;28;20039;-72
2022/07/02 03:26:48;;;;;;;11.60;6.07;;;13.60;99.90;;;;;;5056357;28;20089;-72
2022/07/02 03:29:14;;;;;;;10.45;5.18;;;13.40;99.90;;;;;;5073462;28;20036;-71
2022/07/02 03:31:39;;;;;;;7.18;4.28;;;13.60;99.90;;;;;;5055914;28;20039;-71
2022/07/02 03:34:05;;;;;;;10.23;4.95;;;13.50;99.90;;;;;;5074247;28;20041;-71
2022/07/02 03:36:30;;;;;;;10.68;4.65;;;13.70;99.90;;;;;;5074206;28;20043;-71
2022/07/02 03:38:56;;;;;;;8.68;4.53;;;13.60;99.90;;;;;;5039075;28;20274;-70
2022/07/02 03:41:22;;;;;;;9.35;4.90;;;13.70;99.90;;;;;;5055859;28;20044;-71
2022/07/02 03:43:50;;;;;;;7.45;4.32;;;13.70;99.90;;;;;;5056226;28;20093;-71
2022/07/02 03:46:16;;;;;;;11.30;4.65;;;13.70;99.90;;;;;;5055899;28;20534;-71
2022/07/02 03:48:42;;;;;;;12.32;4.80;;;13.80;99.90;;;;;;5056288;28;20041;-71
2022/07/02 03:51:08;;;;;;;9.57;4.53;;;13.80;99.90;;;;;;5055069;28;20040;-71
2022/07/02 03:53:34;;;;;;;8.35;4.30;;;13.70;99.90;;;;;;5073923;28;20036;-71
2022/07/02 03:55:59;;;;;;;9.07;4.60;;;13.80;99.90;;;;;;5056141;28;20495;-71
2022/07/02 03:58:25;;;;;;;8.95;4.28;;;13.90;99.90;;;;;;5055727;28;20036;-71
2022/07/02 04:00:50;;;;;;;9.20;4.10;;;13.90;99.90;;;;;;5053292;28;20121;-72
2022/07/02 04:03:16;;;;;;;13.68;3.92;;;;;;;;;;5073650;28;20521;-73
2022/07/02 04:05:42;;;;;;;6.93;3.63;;;14.00;99.90;;;;;;5055501;28;20045;-71
2022/07/02 04:08:07;;;;;;;9.27;4.60;;;14.00;99.90;;;;;;5038857;28;20540;-71
2022/07/02 04:10:33;;;;;;;8.90;3.70;;;14.10;99.90;;;;;;5072393;28;20058;-72
2022/07/02 04:12:59;;;;;;;11.50;3.85;;;13.90;99.90;;;;;;5073177;28;20505;-71
2022/07/02 04:15:24;;;;;;;9.25;3.80;;;13.90;99.90;;;;;;5055657;28;20040;-71
2022/07/02 04:17:50;;;;;;;9.70;3.75;;;14.10;99.90;;;;;;5055263;28;20044;-71
2022/07/02 04:20:16;;;;;;;14.23;4.35;;;14.30;99.90;;;;;;5072456;28;20048;-72
2022/07/02 04:22:41;;;;;;;8.18;4.03;;;14.30;99.90;;;;;;5038492;28;20036;-71
2022/07/02 04:25:07;;;;;;;7.40;3.63;;;14.20;99.90;;;;;;5055420;28;20127;-71
2022/07/02 04:27:33;;;;;;;6.07;3.28;;;14.20;99.90;;;;;;5055057;28;20039;-71
2022/07/02 04:29:58;;;;;;;10.45;4.40;;;14.20;99.90;;;;;;5072387;28;20033;-71
2022/07/02 04:32:24;;;;;;;6.70;3.30;;;14.30;99.90;;;;;;5055033;28;20047;-71
2022/07/02 04:34:49;;;;;;;6.45;3.13;;;14.30;99.90;;;;;;5055201;28;20409;-71
2022/07/02 04:37:15;;;;;;;5.68;3.60;;;14.50;99.90;;;;;;5055144;28;20036;-71
2022/07/02 04:39:41;;;;;;;7.10;3.80;;;14.40;99.90;;;;;;5037666;28;20533;-71
2022/07/02 04:42:06;;;;;;;9.73;4.05;;;14.50;99.90;;;;;;5054938;28;20123;-72
2022/07/02 04:44:32;;;;;;;5.57;3.50;;;14.40;99.90;;;;;;5054843;28;20036;-72
2022/07/02 04:46:58;;;;;;;6.00;3.70;;;14.60;99.90;;;;;;5055053;28;20087;-71
2022/07/02 04:49:24;;;;;;;8.13;3.88;;;14.70;99.90;;;;;;5037497;28;20074;-71
2022/07/02 04:51:49;;;;;;;11.32;4.35;;;14.70;99.90;;;;;;5054600;28;20037;-71
2022/07/02 04:54:15;;;;;;;6.70;3.97;;;14.90;99.90;;;;;;5072674;28;20490;-71
2022/07/02 04:56:41;;;;;;;6.47;3.53;;;14.80;99.90;;;;;;5073074;28;20074;-71
2022/07/02 04:59:06;;;;;;;7.35;3.78;;;14.70;99.90;;;;;;5053802;28;20037;-70
2022/07/02 05:01:32;;;;;;;8.00;3.20;;;14.70;99.90;;;;;;5052975;28;20038;-71
2022/07/02 05:03:57;;;;;;;9.23;4.50;;;14.90;99.90;;;;;;5072532;28;20554;-71
2022/07/02 05:06:23;;;;;;;5.88;3.63;;;15.00;99.90;;;;;;5072244;28;20036;-71
2022/07/02 05:08:49;;;;;;;9.15;4.88;;;14.90;99.90;;;;;;5054252;28;20513;-71
2022/07/02 05:11:16;;;;;;;8.77;4.07;;;14.90;99.90;;;;;;5036920;28;20059;-71
2022/07/02 05:13:45;;;;;;;10.60;3.90;;;15.10;99.90;;;;;;5054257;28;20051;-71
2022/07/02 05:16:11;;;;;;;9.30;4.13;;;15.20;99.90;;;;;;5054524;28;20406;-71
2022/07/02 05:18:37;;;;;;;8.75;5.15;;;15.30;99.90;;;;;;5054175;28;20037;-73
2022/07/02 05:21:04;;;;;;;8.20;4.40;;;15.40;99.90;;;;;;5053077;28;20041;-71
2022/07/02 05:23:30;;;;;;;8.40;4.43;;;15.40;99.90;;;;;;5072180;28;20394;-71
2022/07/02 05:25:55;;;;;;;6.75;4.53;;;15.40;99.90;;;;;;5054237;28;20037;-71
2022/07/02 05:28:21;;;;;;;5.88;5.28;;;17.20;99.90;;;;;;5072060;28;20040;-71
2022/07/02 05:30:47;;;;;;;10.52;5.28;;;15.60;99.90;;;;;;5053450;28;20052;-71
2022/07/02 05:33:12;;;;;;;7.05;4.68;;;15.60;99.90;;;;;;5053997;28;20128;-71
2022/07/02 05:35:38;;;;;;;8.30;4.32;;;15.70;99.90;;;;;;5037209;28;20047;-71
2022/07/02 05:38:03;;;;;;;9.07;5.60;;;16.60;99.90;;;;;;5053832;28;20036;-71
2022/07/02 05:40:29;;;;;;;9.82;4.80;;;15.70;99.90;;;;;;5053103;28;20032;-71
2022/07/02 05:42:54;;;;;;;9.45;5.15;;;15.90;99.90;;;;;;5071916;28;20131;-71
2022/07/02 05:45:20;;;;;;;9.25;5.43;;;16.00;99.90;;;;;;5071840;28;20040;-71
2022/07/02 05:47:46;;;;;;;9.73;5.70;;;16.10;99.90;;;;;;5071830;28;20039;-72
2022/07/02 05:50:12;;;;;;;10.70;5.50;;;16.20;99.90;;;;;;5036521;28;20137;-71
2022/07/02 05:52:37;;;;;;;9.20;5.22;;;16.30;99.90;;;;;;5053745;28;20052;-71
2022/07/02 05:55:04;;;;;;;6.82;4.72;;;16.10;99.90;;;;;;5053708;28;20409;-71
2022/07/02 05:57:30;;;;;;;12.88;5.15;;;16.30;99.90;;;;;;5054006;28;20406;-71
2022/07/02 05:59:56;;;;;;;9.70;4.88;;;16.60;99.90;;;;;;5070904;28;20051;-70
2022/07/02 06:02:22;;;;;;;10.07;5.47;;;17.90;99.90;;;;;;5051960;28;20090;-71
2022/07/02 06:04:48;;;;;;;10.40;4.45;;;17.70;99.90;;;;;;5053859;28;20040;-71
2022/07/02 06:09:58;;;;;;;10.07;4.90;;;16.70;99.90;;;;;;5095112;22;20045;-68
2022/07/02 06:12:24;;;;;;;5.40;4.82;;;16.70;99.90;;;;;;5048232;28;20049;-69
2022/07/02 06:14:49;;;;;;;6.10;4.15;;;16.80;99.90;;;;;;5033463;28;20517;-70
2022/07/02 06:17:15;;;;;;;8.80;4.30;;;16.70;99.90;;;;;;5051407;28;20609;-69
2022/07/02 06:19:42;;;;;;;7.40;4.30;;;17.20;99.90;;;;;;5049145;28;20075;-69
2022/07/02 06:22:08;;;;;;;10.38;4.72;;;17.00;99.90;;;;;;5051400;28;20494;-70
2022/07/02 06:24:34;;;;;;;9.68;4.25;;;17.10;99.90;;;;;;5054353;28;20052;-69
2022/07/02 06:26:59;;;;;;;6.85;3.65;;;18.90;99.90;;;;;;5055096;28;20044;-69
2022/07/02 06:29:25;;;;;;;8.95;4.15;;;17.40;99.90;;;;;;5053146;28;20059;-69
2022/07/02 06:31:51;;;;;;;8.75;4.03;;;18.50;99.90;;;;;;5053689;28;20072;-70
2022/07/02 06:34:16;;;;;;;9.98;3.20;;;17.40;99.90;;;;;;5054875;28;20120;-70
2022/07/02 06:36:42;;;;;;;5.20;3.65;;;17.80;99.90;;;;;;5053678;28;20040;-69
2022/07/02 06:39:07;;;;;;;12.82;3.65;;;18.90;99.90;;;;;;5052651;28;20405;-68
2022/07/02 06:44:17;;;;;;;7.93;2.85;;;19.10;99.90;;;;;;5054864;28;20044;-70
2022/07/02 06:46:42;;;;;;;7.50;3.15;;;18.50;99.90;;;;;;5054529;28;20037;-69
2022/07/02 06:49:08;;;;;;;9.85;3.03;;;17.60;99.90;;;;;;5053414;28;20124;-69
2022/07/02 06:51:34;;;;;;;5.00;2.75;;;19.10;99.90;;;;;;5053161;28;20076;-69
2022/07/02 06:54:02;;;;;;;9.43;3.80;;;18.00;99.90;;;;;;5053272;28;20048;-69
2022/07/02 06:56:29;;;;;;;6.35;2.85;;;18.90;99.90;;;;;;5053472;28;20128;-70
2022/07/02 06:58:56;;;;;;;10.73;2.95;;;19.10;99.90;;;;;;5054576;28;20049;-69
2022/07/02 07:01:22;;;;;;;4.65;2.83;;;18.10;99.90;;;;;;5051238;28;20135;-70
2022/07/02 07:03:48;;;;;;;8.50;3.20;;;19.50;99.90;;;;;;5054678;28;20415;-69
2022/07/02 07:06:13;;;;;;;11.93;4.28;;;18.60;99.90;;;;;;5053342;28;20036;-69
2022/07/02 07:08:39;;;;;;;7.60;3.22;;;18.60;99.90;;;;;;5053393;28;20059;-70
2022/07/02 07:11:05;;;;;;;10.68;2.88;;;18.20;99.90;;;;;;5053736;28;20040;-69
2022/07/02 07:13:30;;;;;;;8.80;2.58;;;18.20;99.90;;;;;;5053314;28;20086;-69
2022/07/02 07:15:56;;;;;;;9.43;2.28;;;19.60;99.90;;;;;;5052948;28;20032;-69
2022/07/02 07:18:22;;;;;;;7.03;2.13;;;19.80;99.90;;;;;;5052776;28;20045;-69
2022/07/02 07:20:49;;;;;;;4.32;2.58;;;18.70;99.90;;;;;;5053384;28;20041;-70
2022/07/02 07:23:15;;;;;;;4.07;2.30;;;18.60;99.90;;;;;;5052687;28;20051;-70
2022/07/02 07:25:41;;;;;;;5.88;1.77;;;18.20;99.90;;;;;;5054250;28;20415;-69
2022/07/02 07:28:06;;;;;;;6.63;2.30;;;18.30;99.90;;;;;;5054228;28;20029;-70
2022/07/02 07:30:32;;;;;;;7.20;2.40;;;18.10;99.90;;;;;;5053285;28;20380;-70
2022/07/02 07:32:57;;;;;;;5.43;2.00;;;18.70;99.90;;;;;;5052525;28;20458;-70
2022/07/02 07:35:23;;;;;;;6.55;2.15;;;18.70;99.90;;;;;;5052532;28;20068;-69
2022/07/02 07:37:57;;;;;;;8.40;2.63;;;18.70;99.90;;;;;;5053903;28;20036;-69
2022/07/02 07:40:23;;;;;;;3.30;1.75;;;20.40;99.90;;;;;;5035163;28;20041;-69
2022/07/02 07:42:49;;;;;;;3.30;1.92;;;19.20;99.90;;;;;;5036351;28;20051;-72
2022/07/02 07:45:15;;;;;;;10.45;2.60;;;19.90;99.90;;;;;;5052533;28;20029;-70
2022/07/02 07:47:40;;;;;;;8.85;2.28;;;19.30;99.90;;;;;;5052277;28;20410;-70
2022/07/02 07:50:06;;;;;;;3.75;1.63;;;20.30;99.90;;;;;;5051680;28;20056;-70
2022/07/02 07:52:32;;;;;;;10.40;2.00;;;19.50;99.90;;;;;;5052291;28;20044;-70
2022/07/02 07:54:57;;;;;;;7.13;1.75;;;19.50;99.90;;;;;;5052174;28;20418;-70
2022/07/02 07:57:23;;;;;;;6.22;1.95;;;19.50;99.90;;;;;;5053563;28;20041;-70
2022/07/02 07:59:49;;;;;;;3.60;1.60;;;20.80;99.90;;;;;;5051158;28;20503;-70
2022/07/02 08:02:15;;;;;;;6.15;1.45;;;19.80;99.90;;;;;;5051458;28;20033;-70
2022/07/02 08:04:41;;;;;;;5.97;2.00;;;19.70;99.90;;;;;;5035313;28;20041;-70
2022/07/02 08:07:07;;;;;;;2.88;1.20;;;19.90;99.90;;;;;;5052037;28;20166;-70
2022/07/02 08:09:33;;;;;;;5.50;1.30;;;20.00;99.90;;;;;;5052603;28;20115;-70
2022/07/02 08:11:58;;;;;;;5.93;1.30;;;21.60;99.90;;;;;;5035124;28;20037;-70
2022/07/02 08:14:24;;;;;;;7.95;1.40;;;21.30;99.90;;;;;;5051958;28;20120;-71
2022/07/02 08:16:50;;;;;;;5.05;1.40;;;19.90;99.90;;;;;;5053088;28;20425;-70
2022/07/02 08:19:15;;;;;;;2.95;1.55;;;20.20;99.90;;;;;;5052383;28;20143;-70
2022/07/02 08:21:41;;;;;;;4.28;1.58;;;21.30;99.90;;;;;;5053276;28;20041;-70
2022/07/02 08:24:06;;;;;;;3.25;1.27;;;21.20;99.90;;;;;;5051637;28;20041;-70
2022/07/02 08:26:32;;;;;;;4.38;1.60;;;20.10;99.90;;;;;;5053062;28;20043;-70
2022/07/02 08:28:58;;;;;;;6.03;1.30;;;20.00;99.90;;;;;;5052126;28;20052;-70
2022/07/02 08:31:23;;;;;;;6.07;0.95;;;21.10;99.90;;;;;;5051608;28;20051;-70
2022/07/02 08:33:49;;;;;;;6.00;1.65;;;20.40;99.90;;;;;;5051331;28;20041;-71
2022/07/02 08:36:14;;;;;;;4.38;0.93;;;20.50;99.90;;;;;;5034817;28;20315;-70
2022/07/02 08:38:40;;;;;;;2.38;0.80;;;20.50;99.90;;;;;;5034668;28;20044;-70
2022/07/02 08:41:08;;;;;;;2.53;0.95;;;21.20;99.90;;;;;;5051840;28;20037;-70
2022/07/02 08:43:36;;;;;;;2.13;0.90;;;20.40;99.90;;;;;;5051461;28;20036;-71
2022/07/02 08:46:04;;;;;;;3.88;1.55;;;20.80;99.90;;;;;;5050476;28;20556;-70
2022/07/02 08:48:32;;;;;;;3.80;0.80;;;20.80;99.90;;;;;;5052735;28;20033;-70
2022/07/02 08:50:58;;;;;;;4.95;1.27;;;22.20;99.90;;;;;;5050581;28;20128;-70
2022/07/02 08:53:24;;;;;;;3.65;1.42;;;20.90;99.90;;;;;;5051260;28;20127;-69
2022/07/02 08:55:50;;;;;;;5.50;1.25;;;21.10;99.90;;;;;;5034374;28;20048;-70
2022/07/02 08:58:17;;;;;;;4.68;0.98;;;21.40;99.90;;;;;;5050966;28;20040;-70
2022/07/02 09:00:43;;;;;;;3.67;0.77;;;22.20;99.90;;;;;;5048578;28;20052;-70
2022/07/02 09:03:09;;;;;;;4.95;1.00;;;22.00;99.90;;;;;;5050869;28;20043;-70
2022/07/02 09:05:37;;;;;;;7.55;1.17;;;22.50;99.90;;;;;;5052231;28;20045;-70
2022/07/02 09:08:05;;;;;;;3.38;0.80;;;22.70;99.90;;;;;;5052133;28;20453;-70
2022/07/02 09:10:31;;;;;;;1.33;0.68;;;21.00;99.70;;;;;;5049755;28;20029;-70
2022/07/02 09:12:57;;;;;;;3.22;0.50;;;21.40;99.90;;;;;;5050866;28;20113;-69
2022/07/02 09:15:23;;;;;;;4.30;0.80;;;21.20;99.00;;;;;;5052151;28;20449;-70
2022/07/02 09:17:49;;;;;;;2.50;0.40;;;21.40;99.20;;;;;;5051937;28;20509;-70
2022/07/02 09:20:15;;;;;;;2.67;0.70;;;21.90;98.70;;;;;;5049699;28;20037;-70
2022/07/02 09:22:46;;;;;;;1.83;0.50;;;20.90;98.30;;;;;;5050610;28;20458;-70
2022/07/02 09:25:17;;;;;;;1.38;0.70;;;21.00;98.90;;;;;;5050413;28;20491;-70
2022/07/02 09:27:44;;;;;;;1.98;0.75;;;20.40;99.00;;;;;;5050781;28;20048;-70
2022/07/02 09:30:14;;;;;;;4.05;0.80;;;20.80;99.40;;;;;;5051276;28;20077;-71
2022/07/02 09:32:45;;;;;;;3.15;0.57;;;20.50;99.50;;;;;;5051842;28;20087;-70
2022/07/02 09:35:21;;;;;;;1.63;0.40;;;22.20;99.10;;;;;;5050652;28;20041;-70
2022/07/02 09:37:49;;;;;;;2.10;0.40;;;21.30;98.40;;;;;;5050879;28;20127;-70
2022/07/02 09:40:15;;;;;;;2.75;0.60;;;21.70;98.40;;;;;;5049698;28;20395;-70
2022/07/02 09:42:48;;;;;;;0.63;0.52;;;22.70;99.00;;;;;;5033823;28;20495;-70
2022/07/02 09:45:15;;;;;;;0.70;0.22;;;21.80;97.90;;;;;;5051637;28;20068;-70
2022/07/02 09:47:48;;;;;;;2.70;0.40;;;21.80;97.40;;;;;;5050294;28;20037;-71
2022/07/02 09:50:16;;;;;;;1.67;0.60;;;23.60;99.00;;;;;;5049254;28;20055;-70
2022/07/02 09:52:55;;;;;;;2.25;0.52;;;21.70;98.20;;;;;;5050156;28;20037;-69
2022/07/02 09:55:27;;;;;;;3.45;0.52;;;21.40;97.20;;;;;;5050296;28;20033;-70
2022/07/02 09:57:57;;;;;;;2.28;0.35;;;21.70;97.00;;;;;;5050071;28;20037;-70
2022/07/02 10:00:25;;;;;;;2.40;0.57;;;22.10;97.90;;;;;;5047595;28;20044;-69
2022/07/02 10:02:52;;;;;;;2.75;0.60;;;21.50;98.30;;;;;;5051492;28;20041;-70
2022/07/02 10:05:38;;;;;;;1.30;0.40;;;21.40;97.30;;;;;;5051479;28;20041;-70
2022/07/02 10:08:05;;;;;;;2.70;0.50;;;21.70;98.00;;;;;;5051157;28;20101;-71
2022/07/02 10:10:39;;;;;;;1.17;0.52;;;22.40;97.00;;;;;;5050398;28;20073;-71
2022/07/02 10:13:09;;;;;;;0.88;0.35;;;23.10;97.10;;;;;;5051169;28;20037;-70
2022/07/02 10:15:39;;;;;;;1.95;0.60;;;21.80;96.70;;;;;;5051475;28;20535;-70
2022/07/02 10:18:05;;;;;;;2.17;0.40;;;22.00;96.70;;;;;;5049631;28;20063;-71
2022/07/02 10:20:32;;;;;;;1.88;0.55;;;22.10;97.60;;;;;;5050357;28;20082;-70
2022/07/02 10:23:03;;;;;;;0.77;0.47;;;22.10;96.90;;;;;;5050078;28;20049;-70
2022/07/02 10:25:30;;;;;;;1.35;0.55;;;22.30;97.40;;;;;;5050040;28;20045;-70
2022/07/02 10:27:56;;;;;;;0.75;0.40;;;23.50;97.30;;;;;;5051307;28;20045;-70
2022/07/02 10:33:24;;;;;;;1.58;0.50;;;22.60;97.60;;;;;;5051291;28;20137;-71
2022/07/02 10:35:50;;;;;;;2.15;0.57;;;22.30;96.30;;;;;;5051141;28;20040;-70
2022/07/02 10:38:25;;;;;;;4.25;0.30;;;22.30;96.00;;;;;;5050053;28;20552;-70
2022/07/02 10:40:51;;;;;;;0.93;0.57;;;23.80;96.10;;;;;;5050431;28;20033;-70
2022/07/02 10:43:18;;;;;;;0.50;0.32;;;23.90;97.10;;;;;;5049711;28;20495;-70
2022/07/02 10:45:45;;;;;;;1.10;0.40;;;23.10;96.10;;;;;;5033267;28;20033;-70
2022/07/02 10:48:12;;;;;;;2.80;0.45;;;22.50;96.30;;;;;;5049555;28;20170;-70
2022/07/02 10:50:48;;;;;;;2.45;0.60;;;22.50;96.10;;;;;;5049066;28;20112;-70
2022/07/02 10:53:13;;;;;;;1.67;0.40;;;21.40;95.80;;;;;;5033579;28;20372;-70
2022/07/02 10:55:43;;;;;;;2.47;0.50;;;23.90;95.70;;;;;;5049532;28;20040;-70
2022/07/02 10:58:19;;;;;;;3.08;0.60;;;22.90;96.30;;;;;;5050749;28;20037;-70
2022/07/02 11:00:45;;;;;;;2.58;0.50;;;22.90;96.20;;;;;;5048333;28;20171;-71
2022/07/02 11:03:25;;;;;;;2.10;0.50;;;22.90;95.80;;;;;;5049502;28;20037;-70
2022/07/02 11:06:00;;;;;;;2.15;0.65;;;22.80;95.60;;;;;;5049547;28;20041;-70
2022/07/02 11:08:46;;;;;;;2.00;0.50;;;23.00;95.60;;;;;;5051390;28;20301;-71
2022/07/02 11:11:21;;;;;;;1.40;0.50;;;22.90;96.00;;;;;;5052129;28;20210;-70
2022/07/02 11:13:57;;;;;;;2.17;0.57;;;23.80;96.50;;;;;;5052921;28;20179;-70
2022/07/02 11:16:33;;;;;;;2.90;0.60;;;23.00;94.60;;;;;;5053189;28;20076;-70
2022/07/02 11:18:59;;;;;;;2.05;0.55;;;23.10;94.90;;;;;;5052353;28;20037;-71
2022/07/02 11:21:26;;;;;;;1.10;0.57;;;22.90;95.10;;;;;;5052535;28;20086;-70
2022/07/02 11:23:52;;;;;;;2.40;0.77;;;23.10;95.40;;;;;;5054283;28;20036;-70
2022/07/02 11:26:20;;;;;;;4.35;0.95;;;23.20;94.80;;;;;;5054243;28;20059;-70
2022/07/02 11:28:45;;;;;;;3.05;0.60;;;23.60;95.60;;;;;;5052694;28;20047;-70
2022/07/02 11:31:12;;;;;;;1.42;0.50;;;23.00;95.70;;;;;;5051803;28;20037;-70
2022/07/02 11:33:44;;;;;;;1.38;0.65;;;22.80;95.30;;;;;;5053820;28;20048;-70
2022/07/02 11:36:10;;;;;;;4.37;0.60;;;23.30;95.50;;;;;;5052700;28;20048;-70
2022/07/02 11:38:40;;;;;;;3.08;0.60;;;24.40;96.20;;;;;;5035998;28;20076;-70
2022/07/02 11:41:26;;;;;;;2.90;0.60;;;24.80;96.20;;;;;;5051569;28;20041;-70
2022/07/02 11:43:54;;;;;;;2.05;1.02;;;23.80;95.90;;;;;;5052478;28;20390;-70
2022/07/02 11:46:22;;;;;;;2.67;0.82;;;23.60;94.80;;;;;;5052574;28;20043;-71
2022/07/02 11:48:49;;;;;;;1.40;0.50;;;23.30;94.90;;;;;;5053647;28;20498;-70
2022/07/02 11:51:16;;;;;;;1.52;0.40;;;23.60;95.20;;;;;;5051311;28;20154;-70
2022/07/02 11:53:42;;;;;;;2.88;0.70;;;23.40;95.30;;;;;;5052224;28;20129;-70
2022/07/02 11:56:13;;;;;;;2.85;0.70;;;24.60;95.00;;;;;;5052186;28;20041;-70
2022/07/02 11:58:46;;;;;;;2.75;0.55;;;24.40;95.10;;;;;;5051948;28;20044;-70
2022/07/02 12:01:19;;;;;;;1.98;0.47;;;24.10;94.50;;;;;;5049603;28;20190;-70
2022/07/02 12:03:45;;;;;;;2.22;0.73;;;23.80;94.40;;;;;;5053352;28;20048;-71
2022/07/02 12:06:11;;;;;;;1.63;0.47;;;23.80;94.10;;;;;;5052064;28;20029;-71
2022/07/02 12:08:38;;;;;;;2.10;0.50;;;24.80;94.50;;;;;;5053019;28;20410;-71
2022/07/02 12:11:32;;;;;;;1.70;0.45;;;23.60;94.50;;;;;;5068890;22;20049;-72
2022/07/02 12:13:59;;;;;;;1.17;0.50;;;23.60;94.10;;;;;;5032070;28;20124;-72
2022/07/02 12:16:26;;;;;;;3.08;0.50;;;23.80;94.10;;;;;;5033501;28;20100;-72
2022/07/02 12:19:10;;;;;;;1.60;0.30;;;23.90;94.20;;;;;;5031631;28;20053;-70
2022/07/02 12:21:42;;;;;;;3.60;0.70;;;24.20;93.70;;;;;;5032285;28;20495;-72
2022/07/02 12:24:31;;;;;;;0.80;0.50;;;24.10;93.70;;;;;;5032153;28;20053;-73
2022/07/02 12:27:08;;;;;;;1.42;0.40;;;23.30;93.60;;;;;;5031992;28;20069;-72
2022/07/02 12:29:57;;;;;;;1.00;0.47;;;23.80;94.60;;;;;;5032660;28;20051;-72
2022/07/02 12:32:31;;;;;;;1.70;0.50;;;23.90;94.50;;;;;;5033278;28;20052;-72
2022/07/02 12:35:00;;;;;;;1.63;0.40;;;22.70;94.30;;;;;;5015777;28;20535;-72
2022/07/02 12:37:28;;;;;;;1.95;0.50;;;24.00;95.50;;;;;;5033057;28;20041;-72
2022/07/02 12:40:03;;;;;;;1.55;0.55;;;23.90;95.20;;;;;;5014329;28;20049;-72
2022/07/02 12:42:33;;;;;;;1.27;0.50;;;23.40;94.80;;;;;;5033102;28;20108;-72
2022/07/02 12:45:00;;;;;;;1.63;0.50;;;23.60;94.70;;;;;;5031638;28;20139;-73
2022/07/02 12:47:29;;;;;;;3.80;0.50;;;23.90;94.90;;;;;;5032796;28;20458;-72
2022/07/02 12:49:57;;;;;;;2.88;0.60;;;24.50;94.80;;;;;;5032028;28;20037;-72
2022/07/02 12:52:24;;;;;;;1.60;0.57;;;23.30;95.10;;;;;;5032572;28;20128;-72
2022/07/02 12:54:50;;;;;;;4.80;0.57;;;23.40;94.80;;;;;;5031402;28;20053;-72
2022/07/02 12:57:20;;;;;;;0.93;0.50;;;23.10;95.30;;;;;;5031348;28;20037;-72
2022/07/02 12:59:47;;;;;;;1.83;0.50;;;23.00;95.30;;;;;;5030641;28;20642;-72
2022/07/02 13:02:15;;;;;;;2.03;0.60;;;23.20;95.00;;;;;;5030217;28;20044;-72